sensor_id;sensor_type;location;lat;lon;timestamp;P1;durP1;ratioP1;P2;durP2;ratioP2
19519;SDS011;9904;52.246;20.898;2022-09-02T00:00:42;5.87;;;1.43;;
19519;SDS011;9904;52.246;20.898;2022-09-02T00:03:09;2.63;;;1.63;;
19519;SDS011;9904;52.246;20.898;2022-09-02T00:05:37;4.40;;;1.37;;
19519;SDS011;9904;52.246;20.898;2022-09-02T00:08:03;3.03;;;1.33;;
19519;SDS011;9904;52.246;20.898;2022-09-02T00:10:31;3.50;;;1.40;;
19519;SDS011;9904;52.246;20.898;2022-09-02T00:13:01;4.37;;;1.40;;
19519;SDS011;9904;52.246;20.898;2022-09-02T00:15:27;5.43;;;1.40;;
19519;SDS011;9904;52.246;20.898;2022-09-02T00:17:54;3.23;;;1.50;;
19519;SDS011;9904;52.246;20.898;2022-09-02T00:20:24;4.10;;;1.20;;
19519;SDS011;9904;52.246;20.898;2022-09-02T00:22:50;4.13;;;1.40;;
19519;SDS011;9904;52.246;20.898;2022-09-02T00:25:17;2.33;;;1.37;;
19519;SDS011;9904;52.246;20.898;2022-09-02T00:27:44;6.43;;;1.60;;
19519;SDS011;9904;52.246;20.898;2022-09-02T00:30:11;2.93;;;1.60;;
19519;SDS011;9904;52.246;20.898;2022-09-02T00:32:38;6.20;;;1.67;;
19519;SDS011;9904;52.246;20.898;2022-09-02T00:35:05;4.70;;;1.83;;
19519;SDS011;9904;52.246;20.898;2022-09-02T00:37:32;4.63;;;1.83;;
19519;SDS011;9904;52.246;20.898;2022-09-02T00:39:59;3.53;;;1.70;;
19519;SDS011;9904;52.246;20.898;2022-09-02T00:42:26;4.60;;;1.60;;
19519;SDS011;9904;52.246;20.898;2022-09-02T00:44:53;3.00;;;1.30;;
19519;SDS011;9904;52.246;20.898;2022-09-02T00:47:20;4.07;;;1.37;;
19519;SDS011;9904;52.246;20.898;2022-09-02T00:49:48;3.73;;;1.23;;
19519;SDS011;9904;52.246;20.898;2022-09-02T00:52:21;2.93;;;1.43;;
19519;SDS011;9904;52.246;20.898;2022-09-02T00:55:02;3.63;;;1.40;;
19519;SDS011;9904;52.246;20.898;2022-09-02T00:57:43;2.43;;;1.30;;
19519;SDS011;9904;52.246;20.898;2022-09-02T01:00:19;3.10;;;1.30;;
19519;SDS011;9904;52.246;20.898;2022-09-02T01:02:48;5.30;;;1.40;;
19519;SDS011;9904;52.246;20.898;2022-09-02T01:05:17;2.87;;;1.30;;
19519;SDS011;9904;52.246;20.898;2022-09-02T01:07:45;5.53;;;1.40;;
19519;SDS011;9904;52.246;20.898;2022-09-02T01:10:13;4.60;;;1.50;;
19519;SDS011;9904;52.246;20.898;2022-09-02T01:12:43;7.60;;;1.57;;
19519;SDS011;9904;52.246;20.898;2022-09-02T01:15:11;4.70;;;1.37;;
19519;SDS011;9904;52.246;20.898;2022-09-02T01:17:39;2.83;;;1.60;;
19519;SDS011;9904;52.246;20.898;2022-09-02T01:20:10;4.53;;;1.20;;
19519;SDS011;9904;52.246;20.898;2022-09-02T01:22:39;3.33;;;1.40;;
19519;SDS011;9904;52.246;20.898;2022-09-02T01:25:10;1.73;;;1.20;;
19519;SDS011;9904;52.246;20.898;2022-09-02T01:27:40;4.47;;;1.67;;
19519;SDS011;9904;52.246;20.898;2022-09-02T01:30:08;4.40;;;1.17;;
19519;SDS011;9904;52.246;20.898;2022-09-02T01:32:37;3.40;;;1.60;;
19519;SDS011;9904;52.246;20.898;2022-09-02T01:35:04;4.27;;;1.47;;
19519;SDS011;9904;52.246;20.898;2022-09-02T01:37:31;7.13;;;1.40;;
19519;SDS011;9904;52.246;20.898;2022-09-02T01:39:58;3.37;;;1.50;;
19519;SDS011;9904;52.246;20.898;2022-09-02T01:42:26;6.23;;;1.20;;
19519;SDS011;9904;52.246;20.898;2022-09-02T01:44:52;2.33;;;1.27;;
19519;SDS011;9904;52.246;20.898;2022-09-02T01:47:21;7.87;;;1.37;;
19519;SDS011;9904;52.246;20.898;2022-09-02T01:49:49;2.13;;;1.10;;
19519;SDS011;9904;52.246;20.898;2022-09-02T01:52:17;8.93;;;1.77;;
19519;SDS011;9904;52.246;20.898;2022-09-02T01:54:45;3.73;;;1.33;;
19519;SDS011;9904;52.246;20.898;2022-09-02T01:57:11;6.33;;;1.40;;
19519;SDS011;9904;52.246;20.898;2022-09-02T01:59:38;4.13;;;1.43;;
19519;SDS011;9904;52.246;20.898;2022-09-02T02:02:05;3.63;;;1.63;;
19519;SDS011;9904;52.246;20.898;2022-09-02T02:04:32;5.47;;;1.30;;
19519;SDS011;9904;52.246;20.898;2022-09-02T02:06:59;5.67;;;1.20;;
19519;SDS011;9904;52.246;20.898;2022-09-02T02:09:26;4.97;;;1.63;;
19519;SDS011;9904;52.246;20.898;2022-09-02T02:11:53;2.93;;;1.20;;
19519;SDS011;9904;52.246;20.898;2022-09-02T02:14:20;2.57;;;1.43;;
19519;SDS011;9904;52.246;20.898;2022-09-02T02:16:47;3.17;;;1.40;;
19519;SDS011;9904;52.246;20.898;2022-09-02T02:19:14;2.97;;;1.23;;
19519;SDS011;9904;52.246;20.898;2022-09-02T02:21:41;2.90;;;1.23;;
19519;SDS011;9904;52.246;20.898;2022-09-02T02:24:08;5.57;;;1.33;;
19519;SDS011;9904;52.246;20.898;2022-09-02T02:26:35;5.00;;;1.80;;
19519;SDS011;9904;52.246;20.898;2022-09-02T02:29:02;1.63;;;1.00;;
19519;SDS011;9904;52.246;20.898;2022-09-02T02:31:29;2.97;;;1.30;;
19519;SDS011;9904;52.246;20.898;2022-09-02T02:33:55;3.90;;;1.20;;
19519;SDS011;9904;52.246;20.898;2022-09-02T02:36:23;2.90;;;1.00;;
19519;SDS011;9904;52.246;20.898;2022-09-02T02:38:50;4.40;;;1.40;;
19519;SDS011;9904;52.246;20.898;2022-09-02T02:41:17;3.17;;;1.40;;
19519;SDS011;9904;52.246;20.898;2022-09-02T02:43:43;4.17;;;1.33;;
19519;SDS011;9904;52.246;20.898;2022-09-02T02:46:10;3.33;;;1.70;;
19519;SDS011;9904;52.246;20.898;2022-09-02T02:48:37;4.23;;;1.27;;
19519;SDS011;9904;52.246;20.898;2022-09-02T02:51:04;4.83;;;1.83;;
19519;SDS011;9904;52.246;20.898;2022-09-02T02:53:31;4.10;;;1.77;;
19519;SDS011;9904;52.246;20.898;2022-09-02T02:55:59;3.63;;;1.47;;
19519;SDS011;9904;52.246;20.898;2022-09-02T02:58:26;5.37;;;1.57;;
19519;SDS011;9904;52.246;20.898;2022-09-02T03:00:53;4.80;;;1.67;;
19519;SDS011;9904;52.246;20.898;2022-09-02T03:03:20;6.00;;;1.77;;
19519;SDS011;9904;52.246;20.898;2022-09-02T03:05:48;5.40;;;1.87;;
19519;SDS011;9904;52.246;20.898;2022-09-02T03:08:16;5.03;;;1.70;;
19519;SDS011;9904;52.246;20.898;2022-09-02T03:10:47;4.50;;;1.90;;
19519;SDS011;9904;52.246;20.898;2022-09-02T03:13:16;6.10;;;1.83;;
19519;SDS011;9904;52.246;20.898;2022-09-02T03:15:43;3.93;;;1.63;;
19519;SDS011;9904;52.246;20.898;2022-09-02T03:18:09;3.97;;;1.70;;
19519;SDS011;9904;52.246;20.898;2022-09-02T03:20:37;4.27;;;2.07;;
19519;SDS011;9904;52.246;20.898;2022-09-02T03:23:05;9.20;;;2.13;;
19519;SDS011;9904;52.246;20.898;2022-09-02T03:25:32;7.03;;;2.03;;
19519;SDS011;9904;52.246;20.898;2022-09-02T03:28:01;3.10;;;1.77;;
19519;SDS011;9904;52.246;20.898;2022-09-02T03:30:29;4.07;;;1.90;;
19519;SDS011;9904;52.246;20.898;2022-09-02T03:32:57;3.50;;;1.80;;
19519;SDS011;9904;52.246;20.898;2022-09-02T03:35:29;3.17;;;1.57;;
19519;SDS011;9904;52.246;20.898;2022-09-02T03:37:57;4.93;;;2.03;;
19519;SDS011;9904;52.246;20.898;2022-09-02T03:40:25;4.20;;;1.70;;
19519;SDS011;9904;52.246;20.898;2022-09-02T03:42:53;5.10;;;1.90;;
19519;SDS011;9904;52.246;20.898;2022-09-02T03:45:25;7.20;;;2.40;;
19519;SDS011;9904;52.246;20.898;2022-09-02T03:47:52;5.00;;;2.00;;
19519;SDS011;9904;52.246;20.898;2022-09-02T03:50:24;5.67;;;2.10;;
19519;SDS011;9904;52.246;20.898;2022-09-02T03:52:52;6.30;;;2.00;;
19519;SDS011;9904;52.246;20.898;2022-09-02T03:55:20;5.73;;;2.00;;
19519;SDS011;9904;52.246;20.898;2022-09-02T03:57:47;6.63;;;1.90;;
19519;SDS011;9904;52.246;20.898;2022-09-02T04:00:14;4.50;;;1.90;;
19519;SDS011;9904;52.246;20.898;2022-09-02T04:02:42;5.23;;;2.23;;
19519;SDS011;9904;52.246;20.898;2022-09-02T04:05:15;6.13;;;2.00;;
19519;SDS011;9904;52.246;20.898;2022-09-02T04:07:41;3.90;;;2.00;;
19519;SDS011;9904;52.246;20.898;2022-09-02T04:10:12;4.77;;;1.83;;
19519;SDS011;9904;52.246;20.898;2022-09-02T04:12:39;4.27;;;1.97;;
19519;SDS011;9904;52.246;20.898;2022-09-02T04:15:09;3.40;;;1.70;;
19519;SDS011;9904;52.246;20.898;2022-09-02T04:17:38;4.07;;;1.90;;
19519;SDS011;9904;52.246;20.898;2022-09-02T04:20:06;6.30;;;1.90;;
19519;SDS011;9904;52.246;20.898;2022-09-02T04:22:34;4.43;;;1.60;;
19519;SDS011;9904;52.246;20.898;2022-09-02T04:25:02;5.10;;;1.80;;
19519;SDS011;9904;52.246;20.898;2022-09-02T04:27:30;6.43;;;1.70;;
19519;SDS011;9904;52.246;20.898;2022-09-02T04:29:57;5.67;;;1.80;;
19519;SDS011;9904;52.246;20.898;2022-09-02T04:32:24;4.87;;;1.70;;
19519;SDS011;9904;52.246;20.898;2022-09-02T04:34:52;3.53;;;1.87;;
19519;SDS011;9904;52.246;20.898;2022-09-02T04:37:18;3.20;;;1.70;;
19519;SDS011;9904;52.246;20.898;2022-09-02T04:39:45;6.07;;;2.13;;
19519;SDS011;9904;52.246;20.898;2022-09-02T04:42:12;10.90;;;1.87;;
19519;SDS011;9904;52.246;20.898;2022-09-02T04:44:38;4.77;;;1.80;;
19519;SDS011;9904;52.246;20.898;2022-09-02T04:47:05;4.63;;;1.97;;
19519;SDS011;9904;52.246;20.898;2022-09-02T04:49:32;4.97;;;2.13;;
19519;SDS011;9904;52.246;20.898;2022-09-02T04:51:59;5.30;;;1.80;;
19519;SDS011;9904;52.246;20.898;2022-09-02T04:54:26;4.30;;;1.87;;
19519;SDS011;9904;52.246;20.898;2022-09-02T04:56:53;4.07;;;1.90;;
19519;SDS011;9904;52.246;20.898;2022-09-02T04:59:20;9.20;;;1.90;;
19519;SDS011;9904;52.246;20.898;2022-09-02T05:01:47;5.47;;;2.47;;
19519;SDS011;9904;52.246;20.898;2022-09-02T05:04:15;5.53;;;1.80;;
19519;SDS011;9904;52.246;20.898;2022-09-02T05:06:42;8.60;;;2.23;;
19519;SDS011;9904;52.246;20.898;2022-09-02T05:09:10;4.97;;;2.30;;
19519;SDS011;9904;52.246;20.898;2022-09-02T05:11:36;12.83;;;3.53;;
19519;SDS011;9904;52.246;20.898;2022-09-02T05:14:04;10.23;;;3.23;;
19519;SDS011;9904;52.246;20.898;2022-09-02T05:16:36;6.57;;;2.80;;
19519;SDS011;9904;52.246;20.898;2022-09-02T05:19:05;6.27;;;2.73;;
19519;SDS011;9904;52.246;20.898;2022-09-02T05:21:39;13.17;;;3.17;;
19519;SDS011;9904;52.246;20.898;2022-09-02T05:24:06;6.03;;;2.13;;
19519;SDS011;9904;52.246;20.898;2022-09-02T05:26:33;7.33;;;2.57;;
19519;SDS011;9904;52.246;20.898;2022-09-02T05:29:02;8.23;;;2.73;;
19519;SDS011;9904;52.246;20.898;2022-09-02T05:31:32;7.03;;;2.20;;
19519;SDS011;9904;52.246;20.898;2022-09-02T05:33:59;6.83;;;1.50;;
19519;SDS011;9904;52.246;20.898;2022-09-02T05:36:26;3.60;;;1.70;;
19519;SDS011;9904;52.246;20.898;2022-09-02T05:38:52;5.53;;;1.20;;
19519;SDS011;9904;52.246;20.898;2022-09-02T05:41:20;4.47;;;1.50;;
19519;SDS011;9904;52.246;20.898;2022-09-02T05:43:49;6.50;;;1.70;;
19519;SDS011;9904;52.246;20.898;2022-09-02T05:46:22;4.07;;;1.50;;
19519;SDS011;9904;52.246;20.898;2022-09-02T05:48:50;4.23;;;1.13;;
19519;SDS011;9904;52.246;20.898;2022-09-02T05:51:49;5.33;;;1.50;;
19519;SDS011;9904;52.246;20.898;2022-09-02T05:54:21;2.73;;;1.20;;
19519;SDS011;9904;52.246;20.898;2022-09-02T05:56:52;4.67;;;1.10;;
19519;SDS011;9904;52.246;20.898;2022-09-02T05:59:19;3.07;;;1.23;;
19519;SDS011;9904;52.246;20.898;2022-09-02T06:01:47;6.40;;;1.50;;
19519;SDS011;9904;52.246;20.898;2022-09-02T06:04:14;6.30;;;1.60;;
19519;SDS011;9904;52.246;20.898;2022-09-02T06:06:41;5.80;;;1.23;;
19519;SDS011;9904;52.246;20.898;2022-09-02T06:09:09;6.17;;;1.73;;
19519;SDS011;9904;52.246;20.898;2022-09-02T06:11:37;3.53;;;1.60;;
19519;SDS011;9904;52.246;20.898;2022-09-02T06:14:06;5.73;;;1.40;;
19519;SDS011;9904;52.246;20.898;2022-09-02T06:16:34;7.23;;;1.73;;
19519;SDS011;9904;52.246;20.898;2022-09-02T06:19:01;4.53;;;1.37;;
19519;SDS011;9904;52.246;20.898;2022-09-02T06:21:29;4.10;;;1.60;;
19519;SDS011;9904;52.246;20.898;2022-09-02T06:23:57;3.90;;;1.70;;
19519;SDS011;9904;52.246;20.898;2022-09-02T06:26:25;5.13;;;1.60;;
19519;SDS011;9904;52.246;20.898;2022-09-02T06:28:52;5.70;;;1.33;;
19519;SDS011;9904;52.246;20.898;2022-09-02T06:31:19;5.87;;;1.27;;
19519;SDS011;9904;52.246;20.898;2022-09-02T06:33:49;5.27;;;1.60;;
19519;SDS011;9904;52.246;20.898;2022-09-02T06:36:17;4.37;;;2.10;;
19519;SDS011;9904;52.246;20.898;2022-09-02T06:38:45;6.97;;;1.37;;
19519;SDS011;9904;52.246;20.898;2022-09-02T06:41:15;3.77;;;1.27;;
19519;SDS011;9904;52.246;20.898;2022-09-02T06:43:44;2.90;;;1.10;;
19519;SDS011;9904;52.246;20.898;2022-09-02T06:46:15;5.77;;;1.43;;
19519;SDS011;9904;52.246;20.898;2022-09-02T06:48:43;4.30;;;1.10;;
19519;SDS011;9904;52.246;20.898;2022-09-02T06:51:24;4.30;;;1.47;;
19519;SDS011;9904;52.246;20.898;2022-09-02T06:53:57;5.53;;;1.20;;
19519;SDS011;9904;52.246;20.898;2022-09-02T06:56:26;3.23;;;1.40;;
19519;SDS011;9904;52.246;20.898;2022-09-02T06:58:53;2.83;;;1.10;;
19519;SDS011;9904;52.246;20.898;2022-09-02T07:01:21;5.27;;;1.50;;
19519;SDS011;9904;52.246;20.898;2022-09-02T07:03:49;2.67;;;1.10;;
19519;SDS011;9904;52.246;20.898;2022-09-02T07:06:36;6.50;;;1.10;;
19519;SDS011;9904;52.246;20.898;2022-09-02T07:09:05;3.80;;;1.03;;
19519;SDS011;9904;52.246;20.898;2022-09-02T07:11:33;4.07;;;1.20;;
19519;SDS011;9904;52.246;20.898;2022-09-02T07:14:00;3.63;;;1.20;;
19519;SDS011;9904;52.246;20.898;2022-09-02T07:16:28;8.40;;;1.17;;
19519;SDS011;9904;52.246;20.898;2022-09-02T07:18:57;8.73;;;1.20;;
19519;SDS011;9904;52.246;20.898;2022-09-02T07:21:27;3.43;;;1.03;;
19519;SDS011;9904;52.246;20.898;2022-09-02T07:23:55;6.40;;;1.30;;
19519;SDS011;9904;52.246;20.898;2022-09-02T07:26:26;13.43;;;1.77;;
19519;SDS011;9904;52.246;20.898;2022-09-02T07:28:54;4.83;;;1.33;;
19519;SDS011;9904;52.246;20.898;2022-09-02T07:31:23;6.23;;;1.23;;
19519;SDS011;9904;52.246;20.898;2022-09-02T07:33:50;4.35;;;0.93;;
19519;SDS011;9904;52.246;20.898;2022-09-02T07:36:16;13.48;;;1.60;;
19519;SDS011;9904;52.246;20.898;2022-09-02T07:38:46;3.63;;;1.10;;
19519;SDS011;9904;52.246;20.898;2022-09-02T07:41:13;3.85;;;1.10;;
19519;SDS011;9904;52.246;20.898;2022-09-02T07:43:40;2.83;;;1.20;;
19519;SDS011;9904;52.246;20.898;2022-09-02T07:46:07;4.20;;;1.10;;
19519;SDS011;9904;52.246;20.898;2022-09-02T07:48:34;4.45;;;1.25;;
19519;SDS011;9904;52.246;20.898;2022-09-02T07:51:01;3.20;;;0.90;;
19519;SDS011;9904;52.246;20.898;2022-09-02T07:53:28;4.90;;;1.10;;
19519;SDS011;9904;52.246;20.898;2022-09-02T07:55:54;5.28;;;0.73;;
19519;SDS011;9904;52.246;20.898;2022-09-02T07:58:22;3.38;;;1.15;;
19519;SDS011;9904;52.246;20.898;2022-09-02T08:00:49;3.70;;;0.90;;
19519;SDS011;9904;52.246;20.898;2022-09-02T08:03:16;1.63;;;0.80;;
19519;SDS011;9904;52.246;20.898;2022-09-02T08:05:44;2.83;;;0.80;;
19519;SDS011;9904;52.246;20.898;2022-09-02T08:08:15;3.47;;;0.90;;
19519;SDS011;9904;52.246;20.898;2022-09-02T08:10:46;3.40;;;0.80;;
19519;SDS011;9904;52.246;20.898;2022-09-02T08:13:14;5.88;;;0.88;;
19519;SDS011;9904;52.246;20.898;2022-09-02T08:15:42;6.82;;;0.80;;
19519;SDS011;9904;52.246;20.898;2022-09-02T08:18:09;6.10;;;1.33;;
19519;SDS011;9904;52.246;20.898;2022-09-02T08:20:47;3.60;;;1.83;;
19519;SDS011;9904;52.246;20.898;2022-09-02T08:23:14;1.70;;;0.80;;
19519;SDS011;9904;52.246;20.898;2022-09-02T08:26:01;3.30;;;0.80;;
19519;SDS011;9904;52.246;20.898;2022-09-02T08:28:28;2.90;;;0.80;;
19519;SDS011;9904;52.246;20.898;2022-09-02T08:30:57;4.20;;;0.70;;
19519;SDS011;9904;52.246;20.898;2022-09-02T08:33:24;6.33;;;0.93;;
19519;SDS011;9904;52.246;20.898;2022-09-02T08:35:51;1.30;;;0.67;;
19519;SDS011;9904;52.246;20.898;2022-09-02T08:38:18;3.07;;;0.70;;
19519;SDS011;9904;52.246;20.898;2022-09-02T08:40:47;1.57;;;0.80;;
19519;SDS011;9904;52.246;20.898;2022-09-02T08:43:19;5.47;;;0.83;;
19519;SDS011;9904;52.246;20.898;2022-09-02T08:45:55;1.00;;;0.50;;
19519;SDS011;9904;52.246;20.898;2022-09-02T08:48:40;3.43;;;0.63;;
19519;SDS011;9904;52.246;20.898;2022-09-02T08:51:19;1.43;;;0.50;;
19519;SDS011;9904;52.246;20.898;2022-09-02T08:54:10;3.40;;;0.50;;
19519;SDS011;9904;52.246;20.898;2022-09-02T08:56:44;2.83;;;0.60;;
19519;SDS011;9904;52.246;20.898;2022-09-02T08:59:11;4.77;;;0.60;;
19519;SDS011;9904;52.246;20.898;2022-09-02T09:01:43;1.57;;;0.50;;
19519;SDS011;9904;52.246;20.898;2022-09-02T09:09:44;1.90;;;0.53;;
19519;SDS011;9904;52.246;20.898;2022-09-02T09:15:02;4.67;;;0.70;;
19519;SDS011;9904;52.246;20.898;2022-09-02T09:17:47;1.23;;;0.57;;
19519;SDS011;9904;52.246;20.898;2022-09-02T09:20:19;2.90;;;0.50;;
19519;SDS011;9904;52.246;20.898;2022-09-02T09:22:48;4.93;;;0.70;;
19519;SDS011;9904;52.246;20.898;2022-09-02T09:25:16;4.37;;;0.60;;
19519;SDS011;9904;52.246;20.898;2022-09-02T09:27:43;3.93;;;0.50;;
19519;SDS011;9904;52.246;20.898;2022-09-02T09:30:11;6.27;;;0.70;;
19519;SDS011;9904;52.246;20.898;2022-09-02T09:32:42;0.93;;;0.43;;
19519;SDS011;9904;52.246;20.898;2022-09-02T09:35:20;1.23;;;0.60;;
19519;SDS011;9904;52.246;20.898;2022-09-02T09:37:47;2.20;;;0.50;;
19519;SDS011;9904;52.246;20.898;2022-09-02T09:45:49;4.27;;;0.70;;
19519;SDS011;9904;52.246;20.898;2022-09-02T09:53:23;5.63;;;0.80;;
19519;SDS011;9904;52.246;20.898;2022-09-02T09:55:54;2.03;;;0.60;;
19519;SDS011;9904;52.246;20.898;2022-09-02T09:58:24;1.30;;;0.50;;
19519;SDS011;9904;52.246;20.898;2022-09-02T10:00:53;3.33;;;0.80;;
19519;SDS011;9904;52.246;20.898;2022-09-02T10:03:24;4.43;;;1.03;;
19519;SDS011;9904;52.246;20.898;2022-09-02T10:05:58;1.07;;;0.50;;
19519;SDS011;9904;52.246;20.898;2022-09-02T10:08:50;4.90;;;0.40;;
19519;SDS011;9904;52.246;20.898;2022-09-02T10:11:27;3.83;;;0.43;;
19519;SDS011;9904;52.246;20.898;2022-09-02T10:14:06;2.33;;;0.53;;
19519;SDS011;9904;52.246;20.898;2022-09-02T10:16:51;3.30;;;0.60;;
19519;SDS011;9904;52.246;20.898;2022-09-02T10:19:51;0.90;;;0.40;;
19519;SDS011;9904;52.246;20.898;2022-09-02T10:22:41;5.70;;;0.97;;
19519;SDS011;9904;52.246;20.898;2022-09-02T10:25:32;1.37;;;0.60;;
19519;SDS011;9904;52.246;20.898;2022-09-02T10:45:36;6.57;;;0.60;;
19519;SDS011;9904;52.246;20.898;2022-09-02T10:51:04;1.10;;;0.43;;
19519;SDS011;9904;52.246;20.898;2022-09-02T10:56:22;3.00;;;0.60;;
19519;SDS011;9904;52.246;20.898;2022-09-02T10:58:58;2.17;;;0.60;;
19519;SDS011;9904;52.246;20.898;2022-09-02T11:01:32;3.03;;;0.70;;
19519;SDS011;9904;52.246;20.898;2022-09-02T11:04:08;1.77;;;0.50;;
19519;SDS011;9904;52.246;20.898;2022-09-02T11:06:40;2.20;;;0.50;;
19519;SDS011;9904;52.246;20.898;2022-09-02T11:09:37;1.53;;;0.60;;
19519;SDS011;9904;52.246;20.898;2022-09-02T11:12:08;6.70;;;0.50;;
19519;SDS011;9904;52.246;20.898;2022-09-02T11:14:50;3.23;;;0.60;;
19519;SDS011;9904;52.246;20.898;2022-09-02T11:20:00;5.27;;;0.60;;
19519;SDS011;9904;52.246;20.898;2022-09-02T11:22:37;5.13;;;0.80;;
19519;SDS011;9904;52.246;20.898;2022-09-02T11:25:12;2.13;;;0.30;;
19519;SDS011;9904;52.246;20.898;2022-09-02T11:27:52;3.07;;;0.50;;
19519;SDS011;9904;52.246;20.898;2022-09-02T11:30:26;3.57;;;0.60;;
19519;SDS011;9904;52.246;20.898;2022-09-02T11:33:18;2.63;;;0.50;;
19519;SDS011;9904;52.246;20.898;2022-09-02T11:35:47;4.27;;;0.70;;
19519;SDS011;9904;52.246;20.898;2022-09-02T11:41:24;1.23;;;0.50;;
19519;SDS011;9904;52.246;20.898;2022-09-02T11:44:17;1.87;;;1.00;;
19519;SDS011;9904;52.246;20.898;2022-09-02T11:52:40;5.03;;;0.60;;
19519;SDS011;9904;52.246;20.898;2022-09-02T11:55:15;2.97;;;0.53;;
19519;SDS011;9904;52.246;20.898;2022-09-02T11:57:52;2.90;;;0.83;;
19519;SDS011;9904;52.246;20.898;2022-09-02T12:00:24;5.77;;;0.73;;
19519;SDS011;9904;52.246;20.898;2022-09-02T12:05:48;2.57;;;0.70;;
19519;SDS011;9904;52.246;20.898;2022-09-02T12:10:56;6.50;;;0.50;;
19519;SDS011;9904;52.246;20.898;2022-09-02T12:13:32;3.13;;;0.60;;
19519;SDS011;9904;52.246;20.898;2022-09-02T12:18:42;1.80;;;0.60;;
19519;SDS011;9904;52.246;20.898;2022-09-02T12:21:26;1.73;;;0.60;;
19519;SDS011;9904;52.246;20.898;2022-09-02T12:27:09;4.73;;;0.60;;
19519;SDS011;9904;52.246;20.898;2022-09-02T12:31:52;5.30;;;0.73;;
19519;SDS011;9904;52.246;20.898;2022-09-02T12:36:50;2.57;;;0.47;;
19519;SDS011;9904;52.246;20.898;2022-09-02T12:41:57;3.40;;;0.70;;
19519;SDS011;9904;52.246;20.898;2022-09-02T12:47:42;1.23;;;0.50;;
19519;SDS011;9904;52.246;20.898;2022-09-02T12:50:58;3.13;;;0.50;;
19519;SDS011;9904;52.246;20.898;2022-09-02T12:55:53;12.93;;;0.80;;
19519;SDS011;9904;52.246;20.898;2022-09-02T12:58:24;4.70;;;0.90;;
19519;SDS011;9904;52.246;20.898;2022-09-02T13:01:16;3.40;;;0.53;;
19519;SDS011;9904;52.246;20.898;2022-09-02T13:13:11;1.63;;;0.70;;
19519;SDS011;9904;52.246;20.898;2022-09-02T13:19:29;3.23;;;0.40;;
19519;SDS011;9904;52.246;20.898;2022-09-02T13:22:17;3.47;;;0.67;;
19519;SDS011;9904;52.246;20.898;2022-09-02T13:30:37;1.43;;;0.50;;
19519;SDS011;9904;52.246;20.898;2022-09-02T13:33:15;4.50;;;0.60;;
19519;SDS011;9904;52.246;20.898;2022-09-02T13:35:42;6.13;;;0.60;;
19519;SDS011;9904;52.246;20.898;2022-09-02T13:38:12;2.60;;;0.60;;
19519;SDS011;9904;52.246;20.898;2022-09-02T13:40:43;3.90;;;0.60;;
19519;SDS011;9904;52.246;20.898;2022-09-02T13:45:38;2.33;;;0.50;;
19519;SDS011;9904;52.246;20.898;2022-09-02T13:48:09;2.97;;;0.70;;
19519;SDS011;9904;52.246;20.898;2022-09-02T13:50:45;1.30;;;0.57;;
19519;SDS011;9904;52.246;20.898;2022-09-02T13:53:16;2.20;;;0.70;;
19519;SDS011;9904;52.246;20.898;2022-09-02T13:56:13;2.77;;;0.60;;
19519;SDS011;9904;52.246;20.898;2022-09-02T13:58:51;6.13;;;0.57;;
19519;SDS011;9904;52.246;20.898;2022-09-02T14:01:28;3.70;;;0.47;;
19519;SDS011;9904;52.246;20.898;2022-09-02T14:03:59;1.50;;;0.50;;
19519;SDS011;9904;52.246;20.898;2022-09-02T14:06:35;0.93;;;0.30;;
19519;SDS011;9904;52.246;20.898;2022-09-02T14:09:05;1.23;;;0.50;;
19519;SDS011;9904;52.246;20.898;2022-09-02T14:11:40;1.50;;;0.50;;
19519;SDS011;9904;52.246;20.898;2022-09-02T14:14:12;2.40;;;0.63;;
19519;SDS011;9904;52.246;20.898;2022-09-02T14:16:39;1.07;;;0.50;;
19519;SDS011;9904;52.246;20.898;2022-09-02T14:21:49;2.50;;;0.80;;
19519;SDS011;9904;52.246;20.898;2022-09-02T14:24:21;9.83;;;0.80;;
19519;SDS011;9904;52.246;20.898;2022-09-02T14:26:58;1.13;;;0.50;;
19519;SDS011;9904;52.246;20.898;2022-09-02T14:29:27;3.07;;;0.30;;
19519;SDS011;9904;52.246;20.898;2022-09-02T14:32:29;5.30;;;0.57;;
19519;SDS011;9904;52.246;20.898;2022-09-02T14:37:49;1.90;;;0.40;;
19519;SDS011;9904;52.246;20.898;2022-09-02T14:40:31;4.47;;;0.50;;
19519;SDS011;9904;52.246;20.898;2022-09-02T14:42:59;2.60;;;0.70;;
19519;SDS011;9904;52.246;20.898;2022-09-02T14:47:54;4.00;;;0.93;;
19519;SDS011;9904;52.246;20.898;2022-09-02T14:50:24;2.07;;;0.60;;
19519;SDS011;9904;52.246;20.898;2022-09-02T14:52:55;7.37;;;1.00;;
19519;SDS011;9904;52.246;20.898;2022-09-02T14:58:11;8.20;;;1.40;;
19519;SDS011;9904;52.246;20.898;2022-09-02T15:00:38;6.37;;;1.37;;
19519;SDS011;9904;52.246;20.898;2022-09-02T15:03:04;2.80;;;1.20;;
19519;SDS011;9904;52.246;20.898;2022-09-02T15:05:32;4.77;;;1.43;;
19519;SDS011;9904;52.246;20.898;2022-09-02T15:07:58;5.77;;;0.80;;
19519;SDS011;9904;52.246;20.898;2022-09-02T15:10:25;3.03;;;1.03;;
19519;SDS011;9904;52.246;20.898;2022-09-02T15:12:53;1.97;;;0.73;;
19519;SDS011;9904;52.246;20.898;2022-09-02T15:15:24;4.53;;;0.87;;
19519;SDS011;9904;52.246;20.898;2022-09-02T15:17:52;9.27;;;1.03;;
19519;SDS011;9904;52.246;20.898;2022-09-02T15:20:19;3.40;;;0.50;;
19519;SDS011;9904;52.246;20.898;2022-09-02T15:22:49;2.47;;;0.53;;
19519;SDS011;9904;52.246;20.898;2022-09-02T15:25:19;0.90;;;0.50;;
19519;SDS011;9904;52.246;20.898;2022-09-02T15:27:45;4.00;;;0.70;;
19519;SDS011;9904;52.246;20.898;2022-09-02T15:30:13;1.90;;;0.60;;
19519;SDS011;9904;52.246;20.898;2022-09-02T15:32:39;0.70;;;0.50;;
19519;SDS011;9904;52.246;20.898;2022-09-02T15:35:07;1.93;;;0.40;;
19519;SDS011;9904;52.246;20.898;2022-09-02T15:37:34;3.17;;;0.60;;
19519;SDS011;9904;52.246;20.898;2022-09-02T15:40:04;1.97;;;0.90;;
19519;SDS011;9904;52.246;20.898;2022-09-02T15:42:36;0.77;;;0.40;;
19519;SDS011;9904;52.246;20.898;2022-09-02T15:45:04;3.70;;;0.50;;
19519;SDS011;9904;52.246;20.898;2022-09-02T15:47:34;5.83;;;0.70;;
19519;SDS011;9904;52.246;20.898;2022-09-02T15:50:01;2.23;;;0.60;;
19519;SDS011;9904;52.246;20.898;2022-09-02T15:52:28;4.83;;;0.60;;
19519;SDS011;9904;52.246;20.898;2022-09-02T15:54:54;2.00;;;0.50;;
19519;SDS011;9904;52.246;20.898;2022-09-02T15:57:22;2.67;;;1.43;;
19519;SDS011;9904;52.246;20.898;2022-09-02T15:59:48;4.50;;;0.70;;
19519;SDS011;9904;52.246;20.898;2022-09-02T16:02:16;2.50;;;0.47;;
19519;SDS011;9904;52.246;20.898;2022-09-02T16:04:43;3.20;;;0.50;;
19519;SDS011;9904;52.246;20.898;2022-09-02T16:07:10;1.87;;;0.50;;
19519;SDS011;9904;52.246;20.898;2022-09-02T16:09:42;1.70;;;0.50;;
19519;SDS011;9904;52.246;20.898;2022-09-02T16:12:08;2.87;;;0.80;;
19519;SDS011;9904;52.246;20.898;2022-09-02T16:14:36;2.27;;;0.60;;
19519;SDS011;9904;52.246;20.898;2022-09-02T16:17:02;2.83;;;0.73;;
19519;SDS011;9904;52.246;20.898;2022-09-02T16:19:29;2.40;;;1.00;;
19519;SDS011;9904;52.246;20.898;2022-09-02T16:21:57;2.53;;;0.97;;
19519;SDS011;9904;52.246;20.898;2022-09-02T16:24:25;4.87;;;1.50;;
19519;SDS011;9904;52.246;20.898;2022-09-02T16:26:52;4.03;;;1.60;;
19519;SDS011;9904;52.246;20.898;2022-09-02T16:29:19;2.93;;;1.30;;
19519;SDS011;9904;52.246;20.898;2022-09-02T16:31:46;1.77;;;0.80;;
19519;SDS011;9904;52.246;20.898;2022-09-02T16:34:33;4.30;;;0.70;;
19519;SDS011;9904;52.246;20.898;2022-09-02T16:37:00;5.93;;;0.90;;
19519;SDS011;9904;52.246;20.898;2022-09-02T16:39:27;3.67;;;0.90;;
19519;SDS011;9904;52.246;20.898;2022-09-02T16:41:55;2.93;;;0.70;;
19519;SDS011;9904;52.246;20.898;2022-09-02T16:44:24;4.83;;;1.07;;
19519;SDS011;9904;52.246;20.898;2022-09-02T16:46:51;5.70;;;0.77;;
19519;SDS011;9904;52.246;20.898;2022-09-02T16:49:18;5.23;;;0.90;;
19519;SDS011;9904;52.246;20.898;2022-09-02T16:51:47;3.27;;;0.70;;
19519;SDS011;9904;52.246;20.898;2022-09-02T16:54:23;5.50;;;1.70;;
19519;SDS011;9904;52.246;20.898;2022-09-02T16:56:57;5.13;;;0.80;;